createdAt,value
2022-12-28T00:01:21.523Z,74.17
2022-12-28T00:03:52.653Z,74.40
2022-12-28T00:06:28.126Z,74.43
2022-12-28T00:08:59.719Z,74.47
2022-12-28T00:11:31.463Z,74.26
2022-12-28T00:14:03.213Z,74.64
2022-12-28T00:16:36.361Z,74.72
2022-12-28T00:19:09.949Z,74.45
2022-12-28T00:21:42.873Z,74.85
2022-12-28T00:24:21.990Z,74.63
2022-12-28T00:26:52.473Z,74.80
2022-12-28T00:29:22.584Z,74.71
2022-12-28T00:31:53.350Z,74.98
2022-12-28T00:34:27.033Z,75.53
2022-12-28T00:37:10.748Z,75.49
2022-12-28T00:39:44.318Z,75.56
2022-12-28T00:42:17.997Z,75.91
2022-12-28T00:44:47.882Z,75.77
2022-12-28T00:47:19.595Z,75.83
2022-12-28T00:49:50.179Z,76.29
2022-12-28T00:52:22.629Z,76.21
2022-12-28T00:54:54.257Z,76.09
2022-12-28T00:57:24.191Z,76.71
2022-12-28T00:59:54.205Z,76.21
2022-12-28T01:02:24.137Z,76.04
2022-12-28T01:04:54.223Z,75.86
2022-12-28T01:07:26.703Z,76.38
2022-12-28T01:09:56.584Z,76.12
2022-12-28T01:12:26.456Z,75.83
2022-12-28T01:14:56.421Z,75.59
2022-12-28T01:17:27.780Z,75.32
2022-12-28T01:19:57.731Z,75.36
2022-12-28T01:22:31.749Z,74.80
2022-12-28T01:25:02.034Z,74.90
2022-12-28T01:27:31.909Z,74.81
2022-12-28T01:30:01.805Z,75.18
2022-12-28T01:32:31.709Z,74.96
2022-12-28T01:35:01.608Z,75.47
2022-12-28T01:37:34.069Z,75.23
2022-12-28T01:40:05.243Z,74.91
2022-12-28T01:42:35.295Z,74.70
2022-12-28T01:45:18.554Z,74.50
2022-12-28T01:47:51.005Z,74.65
2022-12-28T01:50:27.153Z,74.45
2022-12-28T01:53:06.670Z,74.48
2022-12-28T01:55:39.614Z,74.67
2022-12-28T01:58:16.392Z,74.82
2022-12-28T02:00:46.501Z,74.92
2022-12-28T02:03:21.750Z,74.64
2022-12-28T02:05:56.856Z,74.74
2022-12-28T02:08:36.172Z,75.18
2022-12-28T02:11:07.939Z,75.44
2022-12-28T02:13:38.222Z,74.70
2022-12-28T02:16:08.880Z,74.69
2022-12-28T02:18:38.874Z,74.92
2022-12-28T02:21:34.203Z,75.46
2022-12-28T02:24:43.467Z,75.40
2022-12-28T02:27:25.362Z,75.88
2022-12-28T02:30:13.446Z,75.04
2022-12-28T02:33:03.210Z,75.35
2022-12-28T02:35:43.073Z,75.08
2022-12-28T02:38:21.698Z,75.11
2022-12-28T02:40:59.008Z,75.49
2022-12-28T02:43:29.307Z,75.58
2022-12-28T02:46:24.442Z,75.56
2022-12-28T02:49:06.776Z,74.99
2022-12-28T02:51:55.053Z,74.61
2022-12-28T02:55:05.277Z,74.19
2022-12-28T02:57:53.898Z,74.20
2022-12-28T03:00:28.166Z,74.37
2022-12-28T03:03:24.483Z,74.73
2022-12-28T03:06:19.655Z,74.96
2022-12-28T03:09:04.691Z,74.20
2022-12-28T03:11:42.748Z,74.28
2022-12-28T03:14:17.684Z,74.22
2022-12-28T03:17:05.199Z,74.22
2022-12-28T03:19:57.250Z,74.47
2022-12-28T03:22:43.430Z,74.36
2022-12-28T03:25:31.913Z,74.14
2022-12-28T03:28:20.258Z,74.49
2022-12-28T03:31:07.874Z,74.25
2022-12-28T03:33:51.231Z,74.44
2022-12-28T03:36:31.554Z,74.84
2022-12-28T03:39:10.047Z,74.79
2022-12-28T03:41:47.476Z,74.65
2022-12-28T03:44:35.203Z,74.64
2022-12-28T03:47:13.271Z,74.91
2022-12-28T03:49:44.516Z,74.77
2022-12-28T03:52:17.110Z,74.74
2022-12-28T03:54:48.024Z,74.50
2022-12-28T03:57:19.731Z,74.16
2022-12-28T03:59:52.518Z,74.47
2022-12-28T04:02:22.649Z,74.40
2022-12-28T04:04:52.616Z,74.05
2022-12-28T04:07:25.401Z,74.46
2022-12-28T04:09:55.315Z,73.82
2022-12-28T04:12:25.196Z,73.83
2022-12-28T04:15:15.800Z,73.80
2022-12-28T04:17:45.724Z,73.68
2022-12-28T04:20:15.629Z,73.83
2022-12-28T04:22:48.477Z,74.05
2022-12-28T04:25:18.631Z,73.99
2022-12-28T04:27:48.551Z,73.75
2022-12-28T04:30:44.197Z,73.64
2022-12-28T04:33:14.298Z,73.86
2022-12-28T04:35:48.106Z,74.12
2022-12-28T04:38:20.797Z,74.33
2022-12-28T04:40:50.667Z,74.53
2022-12-28T04:43:20.553Z,74.56
2022-12-28T04:45:59.538Z,74.60
2022-12-28T04:48:29.843Z,74.33
2022-12-28T04:51:00.520Z,74.31
2022-12-28T04:53:32.971Z,73.56
2022-12-28T04:56:05.987Z,73.86
2022-12-28T04:58:35.976Z,73.85
2022-12-28T05:01:06.885Z,73.61
2022-12-28T05:03:37.647Z,72.28
2022-12-28T05:06:10.383Z,71.20
2022-12-28T05:08:43.296Z,71.07
2022-12-28T05:11:16.368Z,70.19
2022-12-28T05:13:46.333Z,69.68
2022-12-28T05:16:18.751Z,69.45
2022-12-28T05:18:48.794Z,68.95
2022-12-28T05:21:21.715Z,68.41
2022-12-28T05:23:55.650Z,68.48
2022-12-28T05:26:28.829Z,67.47
2022-12-28T05:29:00.763Z,67.35
2022-12-28T05:31:30.934Z,67.21
2022-12-28T05:34:01.031Z,66.77
2022-12-28T05:36:32.680Z,66.85
2022-12-28T05:39:05.470Z,66.53
2022-12-28T05:41:35.557Z,66.51
2022-12-28T05:44:05.655Z,66.74
2022-12-28T05:46:37.354Z,65.93
2022-12-28T05:49:07.246Z,66.23
2022-12-28T05:51:39.621Z,65.23
2022-12-28T05:54:12.497Z,64.90
2022-12-28T05:56:43.375Z,64.38
2022-12-28T05:59:13.667Z,64.47
2022-12-28T06:01:46.882Z,64.33
2022-12-28T06:04:19.596Z,64.61
2022-12-28T06:06:51.298Z,63.98
2022-12-28T06:09:23.909Z,64.30
2022-12-28T06:11:53.733Z,63.65
2022-12-28T06:14:23.597Z,64.09
2022-12-28T06:16:53.876Z,64.08
2022-12-28T06:19:23.794Z,63.69
2022-12-28T06:21:53.662Z,63.78
2022-12-28T06:24:26.089Z,63.76
2022-12-28T06:26:55.959Z,63.61
2022-12-28T06:29:25.786Z,63.83
2022-12-28T06:31:56.679Z,63.79
2022-12-28T06:34:26.635Z,63.96
2022-12-28T06:36:57.767Z,63.91
2022-12-28T06:39:30.235Z,63.73
2022-12-28T06:42:00.124Z,63.92
2022-12-28T06:44:29.974Z,63.74
2022-12-28T06:47:00.013Z,64.06
2022-12-28T06:49:29.856Z,63.95
2022-12-28T06:51:59.752Z,63.86
2022-12-28T06:54:32.243Z,63.83
2022-12-28T06:57:02.117Z,63.77
2022-12-28T06:59:31.989Z,64.03
2022-12-28T07:02:02.088Z,63.54
2022-12-28T07:04:32.066Z,63.79
2022-12-28T07:07:01.883Z,63.78
2022-12-28T07:09:37.336Z,63.43
2022-12-28T07:12:07.895Z,63.57
2022-12-28T07:14:37.769Z,63.44
2022-12-28T07:17:07.583Z,63.27
2022-12-28T07:19:37.486Z,63.48
2022-12-28T07:22:07.297Z,63.14
2022-12-28T07:24:39.756Z,63.23
2022-12-28T07:27:09.580Z,63.38
2022-12-28T07:29:41.843Z,63.48
2022-12-28T07:32:11.889Z,63.21
2022-12-28T07:34:41.834Z,62.95
2022-12-28T07:37:11.739Z,62.86
2022-12-28T07:39:44.256Z,62.54
2022-12-28T07:42:14.304Z,62.70
2022-12-28T07:44:49.104Z,62.81
2022-12-28T07:47:19.279Z,62.49
2022-12-28T07:49:49.230Z,62.97
2022-12-28T07:52:19.094Z,62.70
2022-12-28T07:54:51.600Z,62.79
2022-12-28T07:57:21.427Z,62.59
2022-12-28T07:59:51.300Z,62.61
2022-12-28T08:02:21.201Z,62.88
2022-12-28T08:04:52.312Z,62.60
2022-12-28T08:07:22.493Z,62.25
2022-12-28T08:09:54.971Z,62.21
2022-12-28T08:12:24.944Z,62.22
2022-12-28T08:14:54.782Z,62.63
2022-12-28T08:17:24.699Z,62.10
2022-12-28T08:19:55.603Z,62.05
2022-12-28T08:22:25.464Z,62.15
2022-12-28T08:24:57.965Z,61.95
2022-12-28T08:27:28.779Z,63.45
2022-12-28T08:30:01.595Z,61.57
2022-12-28T08:32:31.552Z,61.64
2022-12-28T08:35:01.522Z,61.51
2022-12-28T08:37:31.359Z,61.44
2022-12-28T08:40:03.785Z,61.54
2022-12-28T08:42:33.656Z,61.20
2022-12-28T08:45:03.477Z,61.41
2022-12-28T08:47:33.422Z,60.92
2022-12-28T08:50:03.305Z,60.85
2022-12-28T08:52:33.158Z,60.27
2022-12-28T08:55:05.755Z,60.42
2022-12-28T08:57:36.293Z,60.09
2022-12-28T09:00:07.845Z,60.06
2022-12-28T09:02:37.940Z,60.01
2022-12-28T09:05:09.212Z,59.56
2022-12-28T09:07:39.086Z,59.48
2022-12-28T09:10:12.310Z,59.43
2022-12-28T09:12:42.253Z,58.99
2022-12-28T09:15:13.544Z,58.74
2022-12-28T09:17:43.411Z,58.71
2022-12-28T09:20:14.306Z,58.15
2022-12-28T09:22:44.216Z,58.30
2022-12-28T09:25:16.798Z,58.16
2022-12-28T09:27:53.406Z,58.29
2022-12-28T09:30:25.979Z,58.25
2022-12-28T09:33:17.706Z,58.14
2022-12-28T09:35:47.685Z,58.31
2022-12-28T09:38:18.036Z,58.00
2022-12-28T09:40:50.653Z,58.24
2022-12-28T09:43:21.459Z,57.76
2022-12-28T09:45:51.590Z,58.17
2022-12-28T09:48:27.920Z,57.65
2022-12-28T09:50:58.993Z,57.43
2022-12-28T09:53:33.089Z,57.72
2022-12-28T09:56:25.849Z,57.81
2022-12-28T09:58:57.480Z,57.47
2022-12-28T10:01:29.808Z,57.19
2022-12-28T10:04:04.355Z,57.13
2022-12-28T10:06:37.075Z,57.20
2022-12-28T10:09:15.052Z,57.32
2022-12-28T10:11:47.809Z,56.85
2022-12-28T10:14:22.949Z,56.83
2022-12-28T10:16:52.921Z,56.50
2022-12-28T10:19:27.052Z,56.53
2022-12-28T10:22:03.744Z,56.72
2022-12-28T10:24:34.216Z,56.28
2022-12-28T10:27:09.252Z,56.30
2022-12-28T10:29:40.589Z,55.63
2022-12-28T10:32:12.729Z,56.35
2022-12-28T10:34:58.648Z,55.30
2022-12-28T10:37:32.756Z,54.71
2022-12-28T10:40:06.536Z,55.28
2022-12-28T10:42:43.545Z,55.35
2022-12-28T10:45:22.170Z,55.18
2022-12-28T10:47:55.489Z,55.34
2022-12-28T10:50:50.853Z,55.79
2022-12-28T10:53:33.514Z,55.73
2022-12-28T10:56:09.791Z,55.72
2022-12-28T10:58:43.027Z,55.35
2022-12-28T11:01:20.731Z,54.82
2022-12-28T11:04:03.386Z,54.36
2022-12-28T11:06:35.026Z,54.56
2022-12-28T11:09:18.109Z,54.82
2022-12-28T11:11:50.362Z,54.58
2022-12-28T11:14:33.480Z,54.42
2022-12-28T11:17:20.825Z,54.48
2022-12-28T11:19:54.740Z,54.62
2022-12-28T11:22:28.137Z,54.49
2022-12-28T11:25:00.003Z,54.07
2022-12-28T11:27:31.003Z,52.32
2022-12-28T11:30:03.643Z,52.60
2022-12-28T11:32:40.912Z,52.41
2022-12-28T11:35:20.532Z,53.23
2022-12-28T11:37:55.450Z,53.58
2022-12-28T11:40:52.243Z,53.27
2022-12-28T11:43:51.256Z,52.41
2022-12-28T11:46:58.834Z,51.66
2022-12-28T11:49:38.011Z,51.67
2022-12-28T11:52:37.339Z,51.51
2022-12-28T11:55:51.751Z,52.09
2022-12-28T11:58:45.784Z,52.62
2022-12-28T12:01:44.505Z,52.42
2022-12-28T12:04:41.420Z,51.62
2022-12-28T12:07:20.310Z,51.47
2022-12-28T12:10:07.101Z,51.17
2022-12-28T12:12:40.329Z,51.49
2022-12-28T12:15:18.752Z,51.60
2022-12-28T12:17:54.572Z,51.54
2022-12-28T12:20:47.740Z,50.87
2022-12-28T12:23:29.025Z,50.79
2022-12-28T12:26:03.650Z,51.51
2022-12-28T12:28:43.493Z,51.07
2022-12-28T12:31:21.898Z,51.46
2022-12-28T12:33:59.807Z,50.96
2022-12-28T12:37:11.155Z,51.26
2022-12-28T12:40:04.318Z,51.19
2022-12-28T12:42:49.225Z,50.78
2022-12-28T12:45:35.594Z,51.21
2022-12-28T12:48:33.310Z,52.00
2022-12-28T12:51:21.698Z,52.21
2022-12-28T12:54:15.391Z,52.31
2022-12-28T12:56:56.018Z,52.62
2022-12-28T12:59:47.566Z,52.38
2022-12-28T13:02:40.151Z,51.77
2022-12-28T13:05:18.983Z,52.25
2022-12-28T13:07:49.285Z,52.18
2022-12-28T13:10:30.947Z,51.88
2022-12-28T13:13:04.308Z,51.94
2022-12-28T13:15:35.172Z,51.99
2022-12-28T13:20:59.034Z,51.53
2022-12-28T13:23:30.231Z,51.87
2022-12-28T13:26:05.282Z,52.08
2022-12-28T13:28:38.815Z,52.33
2022-12-28T13:31:13.630Z,52.08
2022-12-28T13:33:43.756Z,52.13
2022-12-28T13:36:16.785Z,52.05
2022-12-28T13:38:47.213Z,52.36
2022-12-28T13:41:28.828Z,52.41
2022-12-28T13:44:24.176Z,52.29
2022-12-28T13:47:02.929Z,52.43
2022-12-28T13:49:44.068Z,52.67
2022-12-28T13:52:22.379Z,52.49
2022-12-28T13:55:00.858Z,52.43
2022-12-28T13:57:47.473Z,51.85
2022-12-28T14:00:20.614Z,52.17
2022-12-28T14:02:54.665Z,52.08
2022-12-28T14:05:28.765Z,51.73
2022-12-28T14:08:02.630Z,51.68
2022-12-28T14:10:32.640Z,51.76
2022-12-28T14:13:07.632Z,51.68
2022-12-28T14:15:41.899Z,51.76
2022-12-28T14:18:17.665Z,51.35
2022-12-28T14:20:52.021Z,50.68
2022-12-28T14:23:24.062Z,50.58
2022-12-28T14:25:56.111Z,50.69
2022-12-28T14:28:37.123Z,50.78
2022-12-28T14:31:10.143Z,50.90
2022-12-28T14:33:53.230Z,51.14
2022-12-28T14:36:26.939Z,50.93
2022-12-28T14:39:04.710Z,51.13
2022-12-28T14:41:50.189Z,51.30
2022-12-28T14:44:31.003Z,51.41
2022-12-28T14:47:01.594Z,51.74
2022-12-28T14:49:37.452Z,51.85
2022-12-28T14:52:35.596Z,51.98
2022-12-28T14:55:24.693Z,52.31
2022-12-28T14:58:01.302Z,52.97
2022-12-28T15:00:36.085Z,52.99
2022-12-28T15:03:28.963Z,53.24
2022-12-28T15:06:02.565Z,53.88
2022-12-28T15:08:32.410Z,53.83
2022-12-28T15:13:34.369Z,54.14
2022-12-28T15:16:07.914Z,54.13
2022-12-28T15:18:37.821Z,54.36
2022-12-28T15:21:08.738Z,54.13
2022-12-28T15:23:38.709Z,54.52
2022-12-28T15:26:10.383Z,54.73
2022-12-28T15:28:41.329Z,54.60
2022-12-28T15:31:17.798Z,54.79
2022-12-28T15:33:48.349Z,55.03
2022-12-28T15:36:20.789Z,54.73
2022-12-28T15:38:52.160Z,55.02
2022-12-28T15:41:34.522Z,55.04
2022-12-28T15:44:04.442Z,54.83
2022-12-28T15:46:37.008Z,55.06
2022-12-28T15:49:08.097Z,54.94
2022-12-28T15:51:38.078Z,54.79
2022-12-28T15:54:08.409Z,54.65
2022-12-28T15:56:40.634Z,55.03
2022-12-28T15:59:16.208Z,55.38
2022-12-28T16:01:49.193Z,55.50
2022-12-28T16:04:19.257Z,55.40
2022-12-28T16:06:49.272Z,55.62
2022-12-28T16:09:19.143Z,55.71
2022-12-28T16:11:54.853Z,55.59
2022-12-28T16:14:25.600Z,55.45
2022-12-28T16:16:58.211Z,55.42
2022-12-28T16:19:28.189Z,55.52
2022-12-28T16:21:58.103Z,55.15
2022-12-28T16:24:29.082Z,54.75
2022-12-28T16:26:58.994Z,54.89
2022-12-28T16:29:28.955Z,55.04
2022-12-28T16:32:03.168Z,54.79
2022-12-28T16:34:33.487Z,54.98
2022-12-28T16:37:03.402Z,54.45
2022-12-28T16:39:33.556Z,54.09
2022-12-28T16:42:03.380Z,54.02
2022-12-28T16:44:34.183Z,53.37
2022-12-28T16:47:06.882Z,53.55
2022-12-28T16:49:41.561Z,53.23
2022-12-28T16:52:11.404Z,53.24
2022-12-28T16:54:41.314Z,53.37
2022-12-28T16:57:11.203Z,53.50
2022-12-28T16:59:41.090Z,53.52
2022-12-28T17:02:16.089Z,53.50
2022-12-28T17:04:46.552Z,53.25
2022-12-28T17:07:16.426Z,53.40
2022-12-28T17:09:50.160Z,53.19
2022-12-28T17:12:20.530Z,52.87
2022-12-28T17:14:50.444Z,52.97
2022-12-28T17:17:22.907Z,53.43
2022-12-28T17:19:52.817Z,52.98
2022-12-28T17:22:22.726Z,53.24
2022-12-28T17:24:52.592Z,52.91
2022-12-28T17:27:22.689Z,53.11
2022-12-28T17:29:53.297Z,53.00
2022-12-28T17:32:25.924Z,52.96
2022-12-28T17:34:56.192Z,53.58
2022-12-28T17:37:26.075Z,53.31
2022-12-28T17:39:56.254Z,53.64
2022-12-28T17:42:26.137Z,53.57
2022-12-28T17:44:58.882Z,53.61
2022-12-28T17:47:31.724Z,53.85
2022-12-28T17:50:04.194Z,53.97
2022-12-28T17:52:34.059Z,53.41
2022-12-28T17:55:04.126Z,53.44
2022-12-28T17:57:38.434Z,53.31
2022-12-28T18:00:10.141Z,53.32
2022-12-28T18:02:47.538Z,53.86
2022-12-28T18:05:17.926Z,54.52
2022-12-28T18:07:47.870Z,54.69
2022-12-28T18:10:17.930Z,54.40
2022-12-28T18:12:47.815Z,54.38
2022-12-28T18:15:18.176Z,54.20
2022-12-28T18:17:50.642Z,53.75
2022-12-28T18:20:20.685Z,53.93
2022-12-28T18:22:50.538Z,53.52
2022-12-28T18:25:20.565Z,53.80
2022-12-28T18:27:50.545Z,54.14
2022-12-28T18:30:20.781Z,53.86
2022-12-28T18:32:53.482Z,53.84
2022-12-28T18:35:25.096Z,53.61
2022-12-28T18:37:55.076Z,53.96
2022-12-28T18:40:24.991Z,54.19
2022-12-28T18:42:54.835Z,53.89
2022-12-28T18:45:24.840Z,54.15
2022-12-28T18:47:57.449Z,54.43
2022-12-28T18:50:27.837Z,54.21
2022-12-28T18:52:57.704Z,53.92
2022-12-28T18:55:27.696Z,54.47
2022-12-28T18:57:57.591Z,53.78
2022-12-28T19:00:27.483Z,53.94
2022-12-28T19:03:00.165Z,53.65
2022-12-28T19:05:30.265Z,54.09
2022-12-28T19:08:00.145Z,53.83
2022-12-28T19:10:30.148Z,54.03
2022-12-28T19:13:00.420Z,53.88
2022-12-28T19:15:30.518Z,53.99
2022-12-28T19:18:03.023Z,53.92
2022-12-28T19:20:33.744Z,54.14
2022-12-28T19:23:03.782Z,53.57
2022-12-28T19:25:33.732Z,54.24
2022-12-28T19:28:03.652Z,54.10
2022-12-28T19:30:33.550Z,54.02
2022-12-28T19:33:06.286Z,54.30
2022-12-28T19:35:36.167Z,53.91
2022-12-28T19:38:06.070Z,54.22
2022-12-28T19:40:36.024Z,54.02
2022-12-28T19:43:05.950Z,53.38
2022-12-28T19:45:35.859Z,53.27
2022-12-28T19:48:09.013Z,53.13
2022-12-28T19:50:39.275Z,52.97
2022-12-28T19:53:09.146Z,52.79
2022-12-28T19:55:39.676Z,53.09
2022-12-28T19:58:09.543Z,53.69
2022-12-28T20:00:39.720Z,53.45
2022-12-28T20:03:12.763Z,53.48
2022-12-28T20:05:44.230Z,53.55
2022-12-28T20:08:14.115Z,53.34
2022-12-28T20:10:43.999Z,52.95
2022-12-28T20:13:13.892Z,52.97
2022-12-28T20:15:44.329Z,52.96
2022-12-28T20:18:16.733Z,52.54
2022-12-28T20:21:17.814Z,52.41
2022-12-28T20:23:38.658Z,52.04
2022-12-28T20:26:08.740Z,52.38
2022-12-28T20:28:38.919Z,52.39
2022-12-28T20:31:11.413Z,52.47
2022-12-28T20:33:44.835Z,52.30
2022-12-28T20:36:17.229Z,51.98
2022-12-28T20:38:47.837Z,52.25
2022-12-28T20:41:32.899Z,52.14
2022-12-28T20:44:04.401Z,52.22
2022-12-28T20:46:35.942Z,51.95
2022-12-28T20:49:09.559Z,51.95
2022-12-28T20:51:41.350Z,51.66
2022-12-28T20:54:12.604Z,52.25
2022-12-28T20:56:44.432Z,52.38
2022-12-28T20:59:18.731Z,51.64
2022-12-28T21:01:48.777Z,51.95
2022-12-28T21:04:22.323Z,51.83
2022-12-28T21:06:52.229Z,51.39
2022-12-28T21:09:22.150Z,51.33
2022-12-28T21:11:52.013Z,51.86
2022-12-28T21:14:22.131Z,51.69
2022-12-28T21:16:52.072Z,51.53
2022-12-28T21:19:24.804Z,51.53
2022-12-28T21:21:54.650Z,51.37
2022-12-28T21:24:24.460Z,51.51
2022-12-28T21:26:54.382Z,50.97
2022-12-28T21:29:26.136Z,51.36
2022-12-28T21:31:56.835Z,51.33
2022-12-28T21:34:29.931Z,51.67
2022-12-28T21:37:19.810Z,51.48
2022-12-28T21:39:49.818Z,51.54
2022-12-28T21:42:19.708Z,51.54
2022-12-28T21:44:49.624Z,51.31
2022-12-28T21:47:19.460Z,51.29
2022-12-28T21:49:52.080Z,51.69
2022-12-28T21:52:22.099Z,51.57
2022-12-28T21:54:52.125Z,51.33
2022-12-28T21:57:22.208Z,51.30
2022-12-28T22:00:01.633Z,51.11
2022-12-28T22:02:47.000Z,51.17
2022-12-28T22:05:32.109Z,51.39
2022-12-28T22:08:14.194Z,51.36
2022-12-28T22:10:56.796Z,51.15
2022-12-28T22:13:26.742Z,51.25
2022-12-28T22:15:59.631Z,51.61
2022-12-28T22:19:00.340Z,51.44
2022-12-28T22:21:21.964Z,51.44
2022-12-28T22:23:51.868Z,51.53
2022-12-28T22:26:21.748Z,51.85
2022-12-28T22:28:51.647Z,51.93
2022-12-28T22:31:21.571Z,51.47
2022-12-28T22:33:53.391Z,51.35
2022-12-28T22:36:26.043Z,51.64
2022-12-28T22:38:56.272Z,51.75
2022-12-28T22:41:26.221Z,51.89
2022-12-28T22:43:57.036Z,51.30
2022-12-28T22:46:26.938Z,51.25
2022-12-28T22:48:56.834Z,51.34
2022-12-28T22:51:29.340Z,51.44
2022-12-28T22:53:59.233Z,52.14
2022-12-28T22:56:29.144Z,52.11
2022-12-28T22:59:04.245Z,52.29
2022-12-28T23:01:34.986Z,52.68
2022-12-28T23:04:05.052Z,52.40
2022-12-28T23:06:37.564Z,52.42
2022-12-28T23:09:07.393Z,52.53
2022-12-28T23:11:40.149Z,52.82
2022-12-28T23:14:26.824Z,52.80
2022-12-28T23:16:57.000Z,53.22
2022-12-28T23:19:39.764Z,53.06
2022-12-28T23:22:28.824Z,53.16
2022-12-28T23:25:11.199Z,53.11
2022-12-28T23:27:43.312Z,53.08
2022-12-28T23:30:17.726Z,53.18
2022-12-28T23:32:48.286Z,53.24
2022-12-28T23:35:20.085Z,52.96
2022-12-28T23:37:52.739Z,53.04
2022-12-28T23:40:25.200Z,53.47
2022-12-28T23:42:55.613Z,53.34
2022-12-28T23:45:25.574Z,53.30
2022-12-28T23:47:56.482Z,53.34
2022-12-28T23:50:26.427Z,53.74
2022-12-28T23:52:58.893Z,53.49
2022-12-28T23:55:28.819Z,53.76
2022-12-28T23:57:58.739Z,53.80
